createdAt,value
2023-03-12T00:01:15.042Z,0.90
2023-03-12T00:03:43.719Z,1.00
2023-03-12T00:06:12.558Z,1.00
2023-03-12T00:08:41.498Z,1.10
2023-03-12T00:11:11.352Z,1.10
2023-03-12T00:13:41.747Z,1.10
2023-03-12T00:16:12.796Z,1.20
2023-03-12T00:18:42.372Z,1.20
2023-03-12T00:21:11.516Z,1.20
2023-03-12T00:23:40.024Z,1.20
2023-03-12T00:26:10.721Z,1.30
2023-03-12T00:28:41.128Z,1.30
2023-03-12T00:31:16.745Z,1.40
2023-03-12T00:33:46.354Z,1.30
2023-03-12T00:36:14.850Z,1.30
2023-03-12T00:38:43.980Z,1.40
2023-03-12T00:41:12.628Z,1.40
2023-03-12T00:43:42.522Z,1.40
2023-03-12T00:46:11.168Z,1.50
2023-03-12T00:48:39.930Z,1.50
2023-03-12T00:51:09.148Z,1.80
2023-03-12T00:53:38.143Z,1.60
2023-03-12T00:56:07.687Z,1.70
2023-03-12T00:58:36.232Z,1.80
2023-03-12T01:01:06.664Z,1.90
2023-03-12T01:03:35.367Z,2.00
2023-03-12T01:06:04.086Z,2.00
2023-03-12T01:08:32.844Z,2.10
2023-03-12T01:11:01.424Z,2.10
2023-03-12T01:13:29.975Z,2.20
2023-03-12T01:15:58.631Z,2.20
2023-03-12T01:18:28.657Z,2.30
2023-03-12T01:20:57.177Z,2.30
2023-03-12T01:23:25.790Z,2.30
2023-03-12T01:25:55.493Z,2.40
2023-03-12T01:28:25.298Z,2.40
2023-03-12T01:30:53.861Z,2.50
2023-03-12T01:33:23.553Z,2.50
2023-03-12T01:35:53.637Z,2.50
2023-03-12T01:38:22.256Z,2.50
2023-03-12T01:40:50.877Z,2.50
2023-03-12T01:43:31.474Z,2.60
2023-03-12T01:46:06.213Z,2.60
2023-03-12T01:48:40.350Z,2.60
2023-03-12T01:51:13.378Z,2.60
2023-03-12T01:53:46.055Z,2.60
2023-03-12T01:56:15.971Z,2.60
2023-03-12T01:58:47.426Z,2.60
2023-03-12T02:01:18.400Z,2.60
2023-03-12T02:03:48.654Z,2.60
2023-03-12T02:06:22.265Z,2.60
2023-03-12T02:08:52.449Z,2.60
2023-03-12T02:11:21.152Z,2.60
2023-03-12T02:13:49.940Z,2.60
2023-03-12T02:16:18.649Z,2.60
2023-03-12T02:18:49.696Z,2.60
2023-03-12T02:21:23.708Z,2.60
2023-03-12T02:23:58.638Z,2.60
2023-03-12T02:26:31.995Z,2.60
2023-03-12T02:29:02.811Z,2.60
2023-03-12T02:31:38.388Z,2.60
2023-03-12T02:34:09.320Z,2.70
2023-03-12T02:36:38.521Z,2.70
2023-03-12T02:39:07.569Z,2.70
2023-03-12T02:41:40.866Z,2.70
2023-03-12T02:44:12.533Z,2.80
2023-03-12T02:46:43.701Z,2.80
2023-03-12T02:49:13.593Z,2.80
2023-03-12T02:51:43.461Z,2.90
2023-03-12T02:54:13.608Z,2.90
2023-03-12T02:56:44.020Z,2.90
2023-03-12T02:59:14.280Z,3.00
2023-03-12T03:01:45.324Z,3.00
2023-03-12T03:04:15.031Z,3.00
2023-03-12T03:06:47.806Z,3.00
2023-03-12T03:09:16.939Z,3.10
2023-03-12T03:11:47.025Z,3.10
2023-03-12T03:14:15.838Z,3.10
2023-03-12T03:16:44.839Z,3.10
2023-03-12T03:19:13.831Z,3.20
2023-03-12T03:21:43.840Z,3.20
2023-03-12T03:24:12.675Z,3.20
2023-03-12T03:26:41.647Z,3.20
2023-03-12T03:29:12.178Z,3.20
2023-03-12T03:31:40.886Z,3.20
2023-03-12T03:34:10.087Z,3.20
2023-03-12T03:36:38.773Z,3.30
2023-03-12T03:39:12.683Z,3.30
2023-03-12T03:41:41.334Z,3.30
2023-03-12T03:44:12.147Z,3.30
2023-03-12T03:46:41.302Z,3.30
2023-03-12T03:49:12.128Z,3.30
2023-03-12T03:51:42.861Z,3.30
2023-03-12T03:54:14.906Z,3.30
2023-03-12T03:56:44.967Z,3.30
2023-03-12T03:59:15.552Z,3.30
2023-03-12T04:01:44.999Z,3.40
2023-03-12T04:04:13.937Z,3.30
2023-03-12T04:06:42.658Z,3.40
2023-03-12T04:09:12.068Z,3.40
2023-03-12T04:11:42.137Z,3.40
2023-03-12T04:14:12.828Z,3.40
2023-03-12T04:16:46.899Z,3.40
2023-03-12T04:19:15.821Z,3.40
2023-03-12T04:21:44.707Z,3.40
2023-03-12T04:24:16.093Z,3.40
2023-03-12T04:26:45.964Z,3.40
2023-03-12T04:29:16.396Z,3.30
2023-03-12T04:31:46.927Z,3.50
2023-03-12T04:34:15.797Z,3.30
2023-03-12T04:36:48.149Z,3.30
2023-03-12T04:39:19.725Z,3.30
2023-03-12T04:41:50.984Z,3.40
2023-03-12T04:44:19.531Z,3.30
2023-03-12T04:46:49.685Z,3.30
2023-03-12T04:49:21.716Z,3.30
2023-03-12T04:51:50.487Z,3.30
2023-03-12T04:54:22.440Z,3.20
2023-03-12T04:56:52.298Z,3.20
2023-03-12T04:59:23.300Z,3.20
2023-03-12T05:01:53.829Z,3.10
2023-03-12T05:04:27.576Z,3.10
2023-03-12T05:06:57.203Z,3.00
2023-03-12T05:09:25.904Z,3.00
2023-03-12T05:11:54.604Z,2.90
2023-03-12T05:14:24.930Z,2.90
2023-03-12T05:16:55.742Z,2.90
2023-03-12T05:19:24.318Z,2.90
2023-03-12T05:21:53.075Z,2.90
2023-03-12T05:24:22.703Z,2.90
2023-03-12T05:26:51.240Z,2.90
2023-03-12T05:29:23.592Z,2.90
2023-03-12T05:31:54.987Z,2.90
2023-03-12T05:34:23.844Z,2.90
2023-03-12T05:36:52.658Z,3.00
2023-03-12T05:39:25.829Z,3.00
2023-03-12T05:41:56.976Z,3.00
2023-03-12T05:44:29.143Z,3.00
2023-03-12T05:46:59.278Z,3.00
2023-03-12T05:49:28.952Z,3.10
2023-03-12T05:51:58.968Z,3.10
2023-03-12T05:54:29.188Z,3.20
2023-03-12T05:56:57.868Z,3.20
2023-03-12T05:59:27.865Z,3.20
2023-03-12T06:01:59.253Z,3.20
2023-03-12T06:04:28.217Z,3.30
2023-03-12T06:06:57.202Z,3.30
2023-03-12T06:09:26.435Z,3.40
2023-03-12T06:11:56.050Z,3.30
2023-03-12T06:14:24.627Z,3.30
2023-03-12T06:16:53.453Z,3.20
2023-03-12T06:19:23.649Z,3.20
2023-03-12T06:21:52.219Z,3.20
2023-03-12T06:24:21.889Z,3.20
2023-03-12T06:26:56.135Z,3.10
2023-03-12T06:29:24.739Z,3.10
2023-03-12T06:31:53.480Z,3.10
2023-03-12T06:34:23.484Z,3.30
2023-03-12T06:36:52.016Z,3.10
2023-03-12T06:39:20.612Z,3.10
2023-03-12T06:41:49.312Z,3.10
2023-03-12T06:44:18.365Z,3.10
2023-03-12T06:46:47.071Z,3.10
2023-03-12T06:49:16.226Z,3.10
2023-03-12T06:51:46.117Z,3.10
2023-03-12T06:54:15.050Z,3.10
2023-03-12T06:56:43.780Z,3.20
2023-03-12T06:59:12.337Z,3.10
2023-03-12T07:01:40.924Z,3.10
2023-03-12T07:04:09.465Z,3.10
2023-03-12T07:06:37.982Z,3.30
2023-03-12T07:09:07.889Z,3.10
2023-03-12T07:11:36.688Z,3.10
2023-03-12T07:14:05.198Z,3.10
2023-03-12T07:16:34.950Z,3.10
2023-03-12T07:19:03.997Z,3.10
2023-03-12T07:21:32.441Z,3.10
2023-03-12T07:24:03.821Z,3.10
2023-03-12T07:26:35.110Z,3.10
2023-03-12T07:29:05.028Z,3.10
2023-03-12T07:31:33.683Z,3.10
2023-03-12T07:34:03.407Z,3.20
2023-03-12T07:36:32.124Z,3.20
2023-03-12T07:39:00.716Z,3.10
2023-03-12T07:41:29.272Z,3.20
2023-03-12T07:43:59.831Z,3.30
2023-03-12T07:46:28.536Z,3.30
2023-03-12T07:48:57.239Z,3.30
2023-03-12T07:51:25.779Z,3.30
2023-03-12T07:53:54.462Z,3.30
2023-03-12T07:56:23.421Z,3.40
2023-03-12T07:58:52.772Z,3.40
2023-03-12T08:01:22.860Z,3.50
2023-03-12T08:03:51.546Z,3.50
2023-03-12T08:06:21.057Z,3.50
2023-03-12T08:08:49.744Z,3.60
2023-03-12T08:11:18.638Z,3.60
2023-03-12T08:13:47.208Z,3.60
2023-03-12T08:16:15.876Z,3.60
2023-03-12T08:18:45.879Z,3.70
2023-03-12T08:21:16.680Z,3.70
2023-03-12T08:23:45.353Z,3.80
2023-03-12T08:26:13.982Z,3.80
2023-03-12T08:28:42.753Z,3.90
2023-03-12T08:31:11.479Z,3.90
2023-03-12T08:33:43.394Z,3.90
2023-03-12T08:36:13.406Z,4.00
2023-03-12T08:38:42.082Z,4.00
2023-03-12T08:41:11.576Z,4.10
2023-03-12T08:43:40.111Z,4.20
2023-03-12T08:46:11.034Z,4.20
2023-03-12T08:48:41.665Z,4.30
2023-03-12T08:51:10.211Z,4.40
2023-03-12T08:53:40.110Z,4.40
2023-03-12T08:56:09.274Z,4.50
2023-03-12T08:58:37.982Z,4.50
2023-03-12T09:01:12.735Z,4.60
2023-03-12T09:03:42.145Z,4.70
2023-03-12T09:06:13.602Z,4.70
2023-03-12T09:08:44.463Z,4.80
2023-03-12T09:11:14.463Z,4.80
2023-03-12T09:14:03.850Z,4.80
2023-03-12T09:16:31.989Z,4.90
2023-03-12T09:19:00.508Z,5.20
2023-03-12T09:21:28.999Z,5.10
2023-03-12T09:23:58.936Z,5.30
2023-03-12T09:26:27.782Z,5.40
2023-03-12T09:28:57.872Z,5.50
2023-03-12T09:31:26.750Z,5.60
2023-03-12T09:33:55.254Z,5.70
2023-03-12T09:36:23.883Z,5.80
2023-03-12T09:38:52.361Z,5.90
2023-03-12T09:41:24.866Z,6.00
2023-03-12T09:43:57.169Z,6.20
2023-03-12T09:46:31.663Z,6.40
2023-03-12T09:49:06.884Z,6.40
2023-03-12T09:51:39.905Z,6.60
2023-03-12T09:54:16.827Z,6.70
2023-03-12T09:56:48.126Z,6.80
2023-03-12T09:59:16.663Z,6.80
2023-03-12T10:01:50.558Z,6.80
2023-03-12T10:04:58.153Z,6.80
2023-03-12T10:07:34.200Z,6.80
2023-03-12T10:10:17.878Z,6.80
2023-03-12T10:13:14.792Z,6.80
2023-03-12T10:15:52.282Z,6.90
2023-03-12T10:18:30.787Z,7.00
2023-03-12T10:21:11.126Z,7.10
2023-03-12T10:23:49.509Z,7.20
2023-03-12T10:26:25.379Z,7.10
2023-03-12T10:29:01.430Z,7.10
2023-03-12T10:31:33.490Z,7.20
2023-03-12T10:34:06.023Z,7.20
2023-03-12T10:36:39.585Z,7.30
2023-03-12T10:39:15.493Z,7.40
2023-03-12T10:41:45.993Z,7.40
2023-03-12T10:44:23.035Z,7.60
2023-03-12T10:47:09.345Z,7.90
2023-03-12T10:49:38.679Z,7.90
2023-03-12T10:52:15.641Z,8.00
2023-03-12T10:54:45.853Z,8.20
2023-03-12T10:57:15.642Z,8.30
2023-03-12T10:59:47.956Z,8.40
2023-03-12T11:02:35.121Z,8.50
2023-03-12T11:05:18.751Z,8.60
2023-03-12T11:07:47.386Z,8.60
2023-03-12T11:10:23.312Z,8.80
2023-03-12T11:13:03.602Z,8.70
2023-03-12T11:15:41.233Z,8.80
2023-03-12T11:18:29.323Z,8.90
2023-03-12T11:21:12.509Z,9.00
2023-03-12T11:23:43.885Z,9.10
2023-03-12T11:26:17.868Z,9.20
2023-03-12T11:28:48.751Z,9.20
2023-03-12T11:31:23.892Z,9.30
2023-03-12T11:33:54.401Z,9.30
2023-03-12T11:36:46.813Z,9.30
2023-03-12T11:39:26.738Z,9.40
2023-03-12T11:42:08.152Z,9.40
2023-03-12T11:44:45.077Z,9.60
2023-03-12T11:47:24.890Z,9.60
2023-03-12T11:50:18.521Z,9.70
2023-03-12T11:53:24.691Z,9.70
2023-03-12T11:56:05.066Z,9.70
2023-03-12T11:58:49.648Z,9.70
2023-03-12T12:01:25.211Z,9.70
2023-03-12T12:04:33.798Z,9.70
2023-03-12T12:07:13.441Z,9.70
2023-03-12T12:09:47.255Z,9.80
2023-03-12T12:12:38.454Z,9.80
2023-03-12T12:15:16.319Z,9.90
2023-03-12T12:17:57.852Z,10.00
2023-03-12T12:20:38.453Z,10.00
2023-03-12T12:23:18.374Z,10.00
2023-03-12T12:26:11.184Z,10.00
2023-03-12T12:29:20.064Z,9.90
2023-03-12T12:31:56.046Z,10.10
2023-03-12T12:34:45.758Z,10.20
2023-03-12T12:37:25.699Z,10.20
2023-03-12T12:40:01.119Z,10.20
2023-03-12T12:42:34.620Z,10.30
2023-03-12T12:45:05.542Z,10.30
2023-03-12T12:47:41.557Z,10.30
2023-03-12T12:50:18.299Z,10.50
2023-03-12T12:52:53.543Z,10.40
2023-03-12T12:55:26.176Z,10.40
2023-03-12T12:57:59.080Z,10.40
2023-03-12T13:00:44.596Z,10.50
2023-03-12T13:03:17.589Z,10.30
2023-03-12T13:05:50.363Z,10.30
2023-03-12T13:09:01.257Z,10.40
2023-03-12T13:11:41.990Z,10.50
2023-03-12T13:14:37.801Z,10.60
2023-03-12T13:17:25.766Z,10.70
2023-03-12T13:20:01.631Z,10.90
2023-03-12T13:22:49.241Z,11.00
2023-03-12T13:25:32.000Z,11.10
2023-03-12T13:28:18.122Z,11.10
2023-03-12T13:30:49.791Z,11.00
2023-03-12T13:33:21.641Z,11.00
2023-03-12T13:36:07.410Z,11.00
2023-03-12T13:38:38.010Z,11.10
2023-03-12T13:41:08.378Z,11.10
2023-03-12T13:43:52.805Z,11.20
2023-03-12T13:46:42.785Z,11.10
2023-03-12T13:49:14.826Z,11.30
2023-03-12T13:52:02.968Z,11.40
2023-03-12T13:54:35.922Z,11.60
2023-03-12T13:57:11.121Z,11.80
2023-03-12T13:59:46.452Z,12.00
2023-03-12T14:02:23.571Z,12.10
2023-03-12T14:04:52.850Z,12.40
2023-03-12T14:07:41.082Z,12.30
2023-03-12T14:10:20.488Z,12.40
2023-03-12T14:12:58.626Z,12.50
2023-03-12T14:15:39.838Z,12.50
2023-03-12T14:18:16.326Z,12.50
2023-03-12T14:20:54.941Z,12.70
2023-03-12T14:23:26.301Z,12.70
2023-03-12T14:25:59.545Z,12.60
2023-03-12T14:28:28.834Z,12.50
2023-03-12T14:31:01.919Z,12.50
2023-03-12T14:33:36.228Z,12.40
2023-03-12T14:36:10.143Z,12.40
2023-03-12T14:38:42.241Z,12.40
2023-03-12T14:41:14.575Z,12.30
2023-03-12T14:43:46.250Z,12.40
2023-03-12T14:46:18.844Z,12.40
2023-03-12T14:48:50.129Z,12.50
2023-03-12T14:51:24.309Z,12.50
2023-03-12T14:53:53.682Z,12.50
2023-03-12T14:56:30.156Z,12.50
2023-03-12T14:59:03.850Z,12.50
2023-03-12T15:01:39.366Z,12.40
2023-03-12T15:04:16.429Z,12.40
2023-03-12T15:06:48.022Z,12.40
2023-03-12T15:09:19.884Z,12.40
2023-03-12T15:11:54.703Z,12.40
2023-03-12T15:14:25.439Z,12.40
2023-03-12T15:16:55.739Z,12.30
2023-03-12T15:19:31.534Z,12.20
2023-03-12T15:22:00.709Z,12.20
2023-03-12T15:24:31.269Z,12.00
2023-03-12T15:27:20.194Z,12.00
2023-03-12T15:29:48.957Z,11.90
2023-03-12T15:32:21.326Z,11.80
2023-03-12T15:34:49.973Z,11.70
2023-03-12T15:37:29.482Z,11.70
2023-03-12T15:39:59.015Z,11.50
2023-03-12T15:42:29.653Z,11.50
2023-03-12T15:45:02.824Z,11.50
2023-03-12T15:47:36.335Z,11.50
2023-03-12T15:50:08.801Z,11.50
2023-03-12T15:52:37.637Z,11.50
2023-03-12T15:55:22.427Z,11.50
2023-03-12T15:57:52.315Z,11.50
2023-03-12T16:00:27.564Z,11.50
2023-03-12T16:02:59.685Z,11.50
2023-03-12T16:05:31.533Z,11.50
2023-03-12T16:08:02.841Z,11.40
2023-03-12T16:10:36.213Z,11.30
2023-03-12T16:13:05.498Z,11.40
2023-03-12T16:15:37.091Z,11.30
2023-03-12T16:18:12.428Z,11.20
2023-03-12T16:20:41.211Z,11.20
2023-03-12T16:23:10.141Z,11.20
2023-03-12T16:25:39.074Z,11.20
2023-03-12T16:28:08.036Z,11.10
2023-03-12T16:30:38.011Z,11.10
2023-03-12T16:33:09.431Z,11.10
2023-03-12T16:35:38.244Z,11.00
2023-03-12T16:38:07.725Z,11.00
2023-03-12T16:40:38.636Z,10.90
2023-03-12T16:43:12.149Z,10.90
2023-03-12T16:45:44.660Z,10.90
2023-03-12T16:48:17.535Z,10.80
2023-03-12T16:50:51.258Z,10.80
2023-03-12T16:53:20.523Z,10.80
2023-03-12T16:55:53.024Z,10.80
2023-03-12T16:58:22.943Z,10.70
2023-03-12T17:00:53.821Z,10.70
2023-03-12T17:03:32.389Z,10.70
2023-03-12T17:06:02.262Z,10.70
2023-03-12T17:08:30.870Z,10.60
2023-03-12T17:11:00.253Z,10.60
2023-03-12T17:13:30.084Z,10.60
2023-03-12T17:15:58.880Z,10.50
2023-03-12T17:18:28.799Z,10.50
2023-03-12T17:20:58.087Z,10.50
2023-03-12T17:23:26.749Z,10.40
2023-03-12T17:25:55.323Z,10.40
2023-03-12T17:28:23.827Z,10.30
2023-03-12T17:30:52.397Z,10.30
2023-03-12T17:33:21.249Z,10.20
2023-03-12T17:35:59.749Z,10.10
2023-03-12T17:38:30.170Z,10.10
2023-03-12T17:41:00.413Z,10.10
2023-03-12T17:43:29.046Z,10.00
2023-03-12T17:45:57.568Z,10.00
2023-03-12T17:48:26.014Z,10.00
2023-03-12T17:50:54.503Z,10.00
2023-03-12T17:53:24.453Z,10.00
2023-03-12T17:55:52.914Z,10.00
2023-03-12T17:58:21.418Z,10.00
2023-03-12T18:00:50.318Z,10.10
2023-03-12T18:03:18.890Z,10.00
2023-03-12T18:05:50.301Z,10.00
2023-03-12T18:08:18.784Z,10.00
2023-03-12T18:10:49.085Z,9.90
2023-03-12T18:13:17.708Z,10.00
2023-03-12T18:15:52.658Z,10.00
2023-03-12T18:18:21.321Z,10.00
2023-03-12T18:20:50.157Z,10.00
2023-03-12T18:23:19.394Z,10.10
2023-03-12T18:25:49.241Z,10.10
2023-03-12T18:28:17.700Z,10.10
2023-03-12T18:30:46.985Z,10.20
2023-03-12T18:33:15.921Z,10.30
2023-03-12T18:35:44.927Z,10.30
2023-03-12T18:38:13.541Z,10.30
2023-03-12T18:40:42.065Z,10.30
2023-03-12T18:43:13.414Z,10.30
2023-03-12T18:45:45.778Z,10.30
2023-03-12T18:48:14.285Z,10.30
2023-03-12T18:50:42.893Z,10.30
2023-03-12T18:53:11.348Z,10.30
2023-03-12T18:55:39.767Z,10.50
2023-03-12T18:58:08.258Z,10.30
2023-03-12T19:00:38.119Z,10.30
2023-03-12T19:03:06.709Z,10.30
2023-03-12T19:05:35.341Z,10.30
2023-03-12T19:08:03.991Z,10.30
2023-03-12T19:10:32.439Z,10.30
2023-03-12T19:13:00.946Z,10.20
2023-03-12T19:15:30.184Z,10.30
2023-03-12T19:18:00.100Z,10.20
2023-03-12T19:20:28.714Z,10.40
2023-03-12T19:22:57.186Z,10.30
2023-03-12T19:25:25.743Z,10.30
2023-03-12T19:27:54.185Z,10.20
2023-03-12T19:30:22.994Z,10.20
2023-03-12T19:32:51.519Z,10.30
2023-03-12T19:35:23.018Z,10.20
2023-03-12T19:37:51.524Z,10.20
2023-03-12T19:40:20.109Z,10.20
2023-03-12T19:42:48.623Z,10.20
2023-03-12T19:45:17.216Z,10.30
2023-03-12T19:47:45.670Z,10.20
2023-03-12T19:50:14.129Z,10.30
2023-03-12T19:52:44.066Z,10.20
2023-03-12T19:55:12.948Z,10.20
2023-03-12T19:57:41.416Z,10.20
2023-03-12T20:00:12.194Z,10.20
2023-03-12T20:02:41.202Z,10.20
2023-03-12T20:05:10.807Z,10.20
2023-03-12T20:07:39.556Z,10.20
2023-03-12T20:10:11.216Z,10.20
2023-03-12T20:12:40.207Z,10.10
2023-03-12T20:15:09.593Z,10.20
2023-03-12T20:17:38.218Z,10.20
2023-03-12T20:20:08.851Z,10.20
2023-03-12T20:22:37.715Z,10.10
2023-03-12T20:25:07.566Z,10.10
2023-03-12T20:27:38.524Z,10.10
2023-03-12T20:30:08.269Z,10.10
2023-03-12T20:32:36.891Z,10.10
2023-03-12T20:35:05.965Z,10.10
2023-03-12T20:37:34.503Z,10.10
2023-03-12T20:40:03.009Z,10.10
2023-03-12T20:42:31.491Z,10.10
2023-03-12T20:45:01.346Z,10.10
2023-03-12T20:47:29.829Z,10.00
2023-03-12T20:49:58.275Z,10.00
2023-03-12T20:52:26.831Z,10.00
2023-03-12T20:54:55.286Z,10.00
2023-03-12T20:57:23.723Z,10.10
2023-03-12T20:59:52.234Z,10.10
2023-03-12T21:02:22.126Z,10.00
2023-03-12T21:04:52.554Z,10.00
2023-03-12T21:07:21.141Z,10.00
2023-03-12T21:09:49.789Z,10.10
2023-03-12T21:12:18.257Z,10.10
2023-03-12T21:14:46.766Z,10.10
2023-03-12T21:17:15.313Z,10.10
2023-03-12T21:19:46.453Z,10.00
2023-03-12T21:22:15.488Z,10.00
2023-03-12T21:24:43.943Z,10.00
2023-03-12T21:27:12.999Z,10.00
2023-03-12T21:29:41.527Z,10.00
2023-03-12T21:32:09.972Z,10.00
2023-03-12T21:34:38.423Z,10.00
2023-03-12T21:37:08.349Z,10.00
2023-03-12T21:39:36.854Z,10.00
2023-03-12T21:42:05.384Z,10.00
2023-03-12T21:44:36.256Z,10.00
2023-03-12T21:47:05.414Z,9.90
2023-03-12T21:49:34.749Z,9.90
2023-03-12T21:52:03.954Z,9.90
2023-03-12T21:54:35.729Z,9.90
2023-03-12T21:57:05.619Z,9.90
2023-03-12T21:59:34.121Z,9.90
2023-03-12T22:02:02.621Z,9.90
2023-03-12T22:04:32.050Z,9.90
2023-03-12T22:07:00.618Z,9.90
2023-03-12T22:09:29.111Z,9.90
2023-03-12T22:11:59.053Z,9.80
2023-03-12T22:14:27.604Z,9.80
2023-03-12T22:16:56.693Z,9.80
2023-03-12T22:19:25.147Z,9.80
2023-03-12T22:21:53.640Z,9.80
2023-03-12T22:24:22.095Z,9.80
2023-03-12T22:26:50.581Z,9.80
2023-03-12T22:29:20.413Z,9.70
2023-03-12T22:31:48.943Z,9.80
2023-03-12T22:34:17.407Z,9.80
2023-03-12T22:36:45.944Z,9.70
2023-03-12T22:39:14.466Z,9.80
2023-03-12T22:41:42.953Z,9.80
2023-03-12T22:44:11.693Z,9.70
2023-03-12T22:46:41.577Z,9.70
2023-03-12T22:49:10.044Z,9.70
2023-03-12T22:51:38.753Z,9.70
2023-03-12T22:54:07.267Z,9.60
2023-03-12T22:56:35.786Z,9.60
2023-03-12T22:59:04.283Z,9.50
2023-03-12T23:01:32.835Z,9.50
2023-03-12T23:04:04.019Z,9.50
2023-03-12T23:06:33.012Z,9.40
2023-03-12T23:09:02.296Z,9.40
2023-03-12T23:11:31.078Z,9.30
2023-03-12T23:13:59.541Z,9.30
2023-03-12T23:16:28.655Z,9.30
2023-03-12T23:18:57.281Z,9.30
2023-03-12T23:21:27.213Z,9.20
2023-03-12T23:23:55.767Z,9.20
2023-03-12T23:26:26.595Z,9.20
2023-03-12T23:28:56.158Z,9.20
2023-03-12T23:31:26.976Z,9.10
2023-03-12T23:33:56.106Z,9.10
2023-03-12T23:36:26.652Z,9.10
2023-03-12T23:38:55.199Z,9.10
2023-03-12T23:41:25.454Z,9.10
2023-03-12T23:43:54.296Z,9.10
2023-03-12T23:46:23.111Z,9.10
2023-03-12T23:48:51.868Z,9.00
2023-03-12T23:51:21.981Z,9.10
2023-03-12T23:53:53.750Z,9.00
2023-03-12T23:56:24.854Z,9.00
2023-03-12T23:58:53.546Z,9.10
